Station Historical Data
Daily Summary for April 16, 2017 Units:  English    Metric   Both
« Previous Day
Next Day »
Daily Weekly Monthly Yearly Custom
  High: Low: Average:
Temperature: 57.0 °F 45.9 °F 49.7 °F
Dew Point: 48.2 °F 37.8 °F 43.3 °F
Humidity: 90 % 62 % 79 %
Wind Speed: 25.0 mph 0.0 mph 4.5 mph
Wind Gust: 35.0 mph - -
Wind:- - SSE
Pressure: 30.06 in 29.94 in -
Precipitation: 0.00 in    
Historical Graphs
 
 
Tabular Data for April 16, 2017
Time Temperature Dew Point Pressure Wind Wind Speed Wind Gust Humidity Rainfall Rate (Hourly) solar
00:02 50.7 °F 44.1 °F 30.02 in ESE 2.0 mph 5.0 mph 78 % 0.00 in 0.00 W/m2
00:07 50.7 °F 43.8 °F 30.02 in Calm   9.0 mph 77 % 0.00 in 0.00 W/m2
00:12 50.7 °F 43.8 °F 30.02 in ESE 5.0 mph 5.0 mph 77 % 0.00 in 0.00 W/m2
00:17 50.6 °F 43.7 °F 30.02 in Calm   7.0 mph 77 % 0.00 in 0.00 W/m2
00:22 50.6 °F 44.0 °F 30.02 in East 4.0 mph 6.0 mph 78 % 0.00 in 0.00 W/m2
00:27 50.6 °F 44.0 °F 30.02 in Calm   6.0 mph 78 % 0.00 in 0.00 W/m2
00:32 50.5 °F 43.6 °F 30.02 in Calm   4.0 mph 77 % 0.00 in 0.00 W/m2
00:37 50.5 °F 43.6 °F 30.02 in Calm   6.0 mph 77 % 0.00 in 0.00 W/m2
00:42 50.4 °F 43.5 °F 30.02 in Calm   9.0 mph 77 % 0.00 in 0.00 W/m2
00:47 50.4 °F 43.8 °F 30.02 in Calm   9.0 mph 78 % 0.00 in 0.00 W/m2
00:52 50.3 °F 43.0 °F 30.02 in ESE 4.0 mph 6.0 mph 76 % 0.00 in 0.00 W/m2
00:57 50.3 °F 43.7 °F 30.02 in ESE 4.0 mph 6.0 mph 78 % 0.00 in 0.00 W/m2
01:02 50.2 °F 43.3 °F 30.02 in Calm   7.0 mph 77 % 0.00 in 0.00 W/m2
01:07 50.1 °F 43.2 °F 30.02 in ESE 2.0 mph 6.0 mph 77 % 0.00 in 0.00 W/m2
01:12 50.1 °F 43.2 °F 30.02 in Calm   7.0 mph 77 % 0.00 in 0.00 W/m2
01:17 50.0 °F 42.7 °F 30.02 in Calm   4.0 mph 76 % 0.00 in 0.00 W/m2
01:22 49.9 °F 42.7 °F 30.01 in Calm   5.0 mph 76 % 0.00 in 0.00 W/m2
01:27 49.9 °F 42.7 °F 30.02 in Calm   6.0 mph 76 % 0.00 in 0.00 W/m2
01:32 49.7 °F 42.5 °F 30.02 in East 1.0 mph 11.0 mph 76 % 0.00 in 0.00 W/m2
01:37 49.6 °F 42.4 °F 30.01 in Calm   4.0 mph 76 % 0.00 in 0.00 W/m2
01:42 49.5 °F 42.3 °F 30.01 in ESE 5.0 mph 8.0 mph 76 % 0.00 in 0.00 W/m2
01:47 49.4 °F 42.2 °F 30.01 in East 1.0 mph 5.0 mph 76 % 0.00 in 0.00 W/m2
01:52 49.3 °F 42.1 °F 30.01 in ESE 2.0 mph 6.0 mph 76 % 0.00 in 0.00 W/m2
01:57 49.2 °F 42.0 °F 30.00 in Calm   5.0 mph 76 % 0.00 in 0.00 W/m2
02:03 49.1 °F 41.9 °F 30.00 in ESE 1.0 mph 6.0 mph 76 % 0.00 in 0.00 W/m2
02:08 49.0 °F 41.8 °F 30.00 in ESE 1.0 mph 4.0 mph 76 % 0.00 in 0.00 W/m2
02:13 48.9 °F 41.7 °F 30.00 in Calm   6.0 mph 76 % 0.00 in 0.00 W/m2
02:18 48.8 °F 41.2 °F 30.00 in Calm   7.0 mph 75 % 0.00 in 0.00 W/m2
02:23 48.8 °F 41.2 °F 30.00 in ESE 5.0 mph 6.0 mph 75 % 0.00 in 0.00 W/m2
02:28 48.7 °F 41.5 °F 30.00 in Calm   4.0 mph 76 % 0.00 in 0.00 W/m2
02:33 48.6 °F 41.4 °F 30.00 in Calm   6.0 mph 76 % 0.00 in 0.00 W/m2
02:38 48.5 °F 41.3 °F 30.00 in ESE 2.0 mph 5.0 mph 76 % 0.00 in 0.00 W/m2
02:43 48.4 °F 41.5 °F 30.00 in Calm   4.0 mph 77 % 0.00 in 0.00 W/m2
02:48 48.3 °F 41.4 °F 30.00 in ESE 4.0 mph 4.0 mph 77 % 0.00 in 0.00 W/m2
02:53 48.2 °F 41.3 °F 30.00 in Calm   4.0 mph 77 % 0.00 in 0.00 W/m2
02:58 48.1 °F 41.2 °F 30.00 in ESE 6.0 mph 6.0 mph 77 % 0.00 in 0.00 W/m2
03:03 47.9 °F 40.7 °F 29.99 in Calm   7.0 mph 76 % 0.00 in 0.00 W/m2
03:08 47.8 °F 40.6 °F 29.99 in Calm   4.0 mph 76 % 0.00 in 0.00 W/m2
03:13 47.7 °F 40.5 °F 29.99 in Calm   6.0 mph 76 % 0.00 in 0.00 W/m2
03:18 47.6 °F 40.1 °F 29.99 in Calm   7.0 mph 75 % 0.00 in 0.00 W/m2
03:23 47.6 °F 40.1 °F 29.99 in ESE 2.0 mph 6.0 mph 75 % 0.00 in 0.00 W/m2
03:28 47.5 °F 40.3 °F 29.99 in Calm   7.0 mph 76 % 0.00 in 0.00 W/m2
03:33 47.4 °F 39.9 °F 29.99 in ESE 4.0 mph 7.0 mph 75 % 0.00 in 0.00 W/m2
03:38 47.4 °F 40.6 °F 29.99 in ESE 5.0 mph 7.0 mph 77 % 0.00 in 0.00 W/m2
03:43 47.3 °F 39.8 °F 29.99 in ESE 2.0 mph 14.0 mph 75 % 0.00 in 0.00 W/m2
03:48 47.3 °F 39.8 °F 29.99 in ESE 5.0 mph 5.0 mph 75 % 0.00 in 0.00 W/m2
03:53 47.2 °F 40.0 °F 29.99 in ESE 2.0 mph 5.0 mph 76 % 0.00 in 0.00 W/m2
03:58 47.1 °F 39.9 °F 29.99 in Calm   1.0 mph 76 % 0.00 in 0.00 W/m2
04:03 47.1 °F 39.6 °F 29.99 in Calm   4.0 mph 75 % 0.00 in 0.00 W/m2
04:08 47.0 °F 39.5 °F 29.99 in Calm   4.0 mph 75 % 0.00 in 0.00 W/m2
04:13 46.9 °F 39.4 °F 29.99 in Calm   4.0 mph 75 % 0.00 in 0.00 W/m2
04:18 46.8 °F 39.7 °F 29.98 in Calm   6.0 mph 76 % 0.00 in 0.00 W/m2
04:23 46.7 °F 39.5 °F 29.98 in Calm   7.0 mph 76 % 0.00 in 0.00 W/m2
04:24 46.7 °F 39.5 °F 29.98 in Calm   7.0 mph 76 % 0.00 in 0.00 W/m2
04:29 46.5 °F 39.7 °F 29.98 in Calm   5.0 mph 77 % 0.00 in 0.00 W/m2
04:34 46.5 °F 39.4 °F 29.98 in Calm   4.0 mph 76 % 0.00 in 0.00 W/m2
04:39 46.3 °F 39.2 °F 29.98 in ESE 1.0 mph 4.0 mph 76 % 0.00 in 0.00 W/m2
04:44 46.3 °F 39.2 °F 29.98 in ESE 1.0 mph 8.0 mph 76 % 0.00 in 0.00 W/m2
04:49 46.3 °F 39.2 °F 29.98 in Calm   11.0 mph 76 % 0.00 in 0.00 W/m2
04:54 46.3 °F 39.2 °F 29.98 in ESE 2.0 mph 5.0 mph 76 % 0.00 in 0.00 W/m2
04:59 46.2 °F 39.1 °F 29.97 in Calm   7.0 mph 76 % 0.00 in 0.00 W/m2
05:04 46.2 °F 39.1 °F 29.97 in Calm   6.0 mph 76 % 0.00 in 0.00 W/m2
05:09 46.1 °F 39.0 °F 29.96 in ESE 2.0 mph 8.0 mph 76 % 0.00 in 0.00 W/m2
05:14 46.1 °F 38.6 °F 29.96 in East 1.0 mph 5.0 mph 75 % 0.00 in 0.00 W/m2
05:19 46.0 °F 38.9 °F 29.96 in ESE 1.0 mph 12.0 mph 76 % 0.00 in 0.00 W/m2
05:24 46.0 °F 38.9 °F 29.96 in ESE 5.0 mph 8.0 mph 76 % 0.00 in 0.00 W/m2
05:29 46.0 °F 38.9 °F 29.96 in Calm   13.0 mph 76 % 0.00 in 0.00 W/m2
05:34 46.0 °F 38.5 °F 29.96 in East 5.0 mph 6.0 mph 75 % 0.00 in 0.00 W/m2
05:39 46.0 °F 38.2 °F 29.96 in ESE 4.0 mph 12.0 mph 74 % 0.00 in 0.00 W/m2
05:44 46.0 °F 38.2 °F 29.97 in Calm   6.0 mph 74 % 0.00 in 0.00 W/m2
05:49 46.0 °F 38.2 °F 29.97 in ESE 6.0 mph 6.0 mph 74 % 0.00 in 0.00 W/m2
05:54 46.0 °F 37.8 °F 29.97 in ESE 1.0 mph 5.0 mph 73 % 0.00 in 0.00 W/m2
05:59 46.0 °F 38.2 °F 29.97 in ESE 5.0 mph 5.0 mph 74 % 0.00 in 0.00 W/m2
06:04 46.0 °F 38.2 °F 29.97 in ESE 5.0 mph 7.0 mph 74 % 0.00 in 0.00 W/m2
06:09 46.0 °F 38.5 °F 29.96 in ESE 6.0 mph 11.0 mph 75 % 0.00 in 0.00 W/m2
06:14 45.9 °F 37.8 °F 29.96 in SE 5.0 mph 11.0 mph 73 % 0.00 in 0.00 W/m2
06:19 45.9 °F 38.1 °F 29.96 in ESE 5.0 mph 9.0 mph 74 % 0.00 in 0.00 W/m2
06:24 46.0 °F 37.8 °F 29.96 in SE 1.0 mph 7.0 mph 73 % 0.00 in 0.00 W/m2
06:29 46.0 °F 38.2 °F 29.96 in SE 2.0 mph 13.0 mph 74 % 0.00 in 5.00 W/m2
06:34 46.0 °F 38.2 °F 29.96 in SE 2.0 mph 8.0 mph 74 % 0.00 in 11.00 W/m2
06:39 46.1 °F 38.3 °F 29.96 in SE 2.0 mph 6.0 mph 74 % 0.00 in 19.00 W/m2
06:44 46.1 °F 38.6 °F 29.96 in SE 5.0 mph 8.0 mph 75 % 0.00 in 28.00 W/m2
06:49 46.2 °F 38.7 °F 29.96 in SE 8.0 mph 8.0 mph 75 % 0.00 in 44.00 W/m2
06:54 46.2 °F 38.4 °F 29.96 in SE 5.0 mph 7.0 mph 74 % 0.00 in 56.00 W/m2
06:59 46.2 °F 38.0 °F 29.96 in SE 1.0 mph 9.0 mph 73 % 0.00 in 69.00 W/m2
07:04 46.3 °F 38.1 °F 29.96 in Calm   5.0 mph 73 % 0.00 in 63.00 W/m2
07:09 46.4 °F 38.6 °F 29.97 in ESE 5.0 mph 6.0 mph 74 % 0.00 in 81.00 W/m2
07:14 46.5 °F 38.3 °F 29.97 in SSE 2.0 mph 9.0 mph 73 % 0.00 in 81.00 W/m2
07:19 46.5 °F 38.0 °F 29.97 in Calm   6.0 mph 72 % 0.00 in 97.00 W/m2
07:24 46.6 °F 38.1 °F 29.97 in SE 2.0 mph 9.0 mph 72 % 0.00 in 56.00 W/m2
07:29 46.7 °F 38.5 °F 29.97 in Calm   5.0 mph 73 % 0.00 in 76.00 W/m2
07:35 46.7 °F 38.9 °F 29.97 in SE 2.0 mph 5.0 mph 74 % 0.00 in 165.00 W/m2
07:40 46.7 °F 38.9 °F 29.97 in SE 1.0 mph 8.0 mph 74 % 0.00 in 167.00 W/m2
07:45 46.8 °F 39.3 °F 29.97 in SE 4.0 mph 8.0 mph 75 % 0.00 in 185.00 W/m2
07:50 46.8 °F 39.3 °F 29.97 in SE 8.0 mph 9.0 mph 75 % 0.00 in 211.00 W/m2
07:55 46.9 °F 39.7 °F 29.97 in Calm   13.0 mph 76 % 0.00 in 195.00 W/m2
08:00 47.1 °F 40.3 °F 29.97 in SSE 4.0 mph 8.0 mph 77 % 0.00 in 195.00 W/m2
08:05 47.3 °F 40.1 °F 29.97 in Calm   9.0 mph 76 % 0.00 in 213.00 W/m2
08:10 47.5 °F 40.3 °F 29.98 in Calm   9.0 mph 76 % 0.00 in 183.00 W/m2
08:15 47.7 °F 39.8 °F 29.97 in SE 9.0 mph 10.0 mph 74 % 0.00 in 234.00 W/m2
08:20 48.0 °F 40.5 °F 29.97 in SE 2.0 mph 8.0 mph 75 % 0.00 in 346.00 W/m2
08:25 48.2 °F 40.3 °F 29.97 in SE 1.0 mph 6.0 mph 74 % 0.00 in 369.00 W/m2
08:30 48.4 °F 40.8 °F 29.97 in SE 1.0 mph 8.0 mph 75 % 0.00 in 364.00 W/m2
08:35 48.6 °F 40.7 °F 29.97 in Calm   8.0 mph 74 % 0.00 in 408.00 W/m2
08:40 48.7 °F 40.1 °F 29.97 in Calm   9.0 mph 72 % 0.00 in 410.00 W/m2
08:45 49.0 °F 40.7 °F 29.97 in Calm   8.0 mph 73 % 0.00 in 455.00 W/m2
08:50 49.2 °F 40.2 °F 29.96 in Calm   11.0 mph 71 % 0.00 in 459.00 W/m2
08:55 49.5 °F 40.1 °F 29.97 in SE 4.0 mph 8.0 mph 70 % 0.00 in 459.00 W/m2
09:00 49.7 °F 39.2 °F 29.97 in SSE 1.0 mph 12.0 mph 67 % 0.00 in 489.00 W/m2
09:05 50.1 °F 41.1 °F 29.97 in Calm   7.0 mph 71 % 0.00 in 497.00 W/m2
09:10 50.5 °F 41.1 °F 29.97 in SSE 6.0 mph 7.0 mph 70 % 0.00 in 534.00 W/m2
09:15 50.9 °F 41.5 °F 29.97 in SSE 1.0 mph 10.0 mph 70 % 0.00 in 568.00 W/m2
09:20 51.3 °F 41.5 °F 29.97 in South 7.0 mph 11.0 mph 69 % 0.00 in 570.00 W/m2
09:25 51.6 °F 41.0 °F 29.97 in South 11.0 mph 11.0 mph 67 % 0.00 in 573.00 W/m2
09:30 52.1 °F 40.7 °F 29.97 in SSE 8.0 mph 11.0 mph 65 % 0.00 in 591.00 W/m2
09:35 52.7 °F 40.9 °F 29.97 in SE 7.0 mph 19.0 mph 64 % 0.00 in 638.00 W/m2
09:40 53.5 °F 41.2 °F 29.98 in South 4.0 mph 13.0 mph 63 % 0.00 in 352.00 W/m2
09:45 54.0 °F 42.5 °F 29.98 in South 5.0 mph 11.0 mph 65 % 0.00 in 450.00 W/m2
09:50 54.3 °F 42.0 °F 29.98 in SE 2.0 mph 9.0 mph 63 % 0.00 in 536.00 W/m2
09:55 54.7 °F 42.8 °F 29.98 in South 7.0 mph 10.0 mph 64 % 0.00 in 515.00 W/m2
10:00 55.0 °F 43.1 °F 29.98 in South 1.0 mph 11.0 mph 64 % 0.00 in 336.00 W/m2
10:05 55.2 °F 43.2 °F 29.98 in SSE 2.0 mph 13.0 mph 64 % 0.00 in 359.00 W/m2
10:10 55.5 °F 43.1 °F 29.98 in Calm   13.0 mph 63 % 0.00 in 404.00 W/m2
10:15 55.7 °F 43.7 °F 29.98 in South 9.0 mph 17.0 mph 64 % 0.00 in 385.00 W/m2
10:20 55.8 °F 43.0 °F 29.98 in South 12.0 mph 14.0 mph 62 % 0.00 in 345.00 W/m2
10:25 56.0 °F 43.2 °F 29.98 in SSW 8.0 mph 15.0 mph 62 % 0.00 in 592.00 W/m2
10:30 56.2 °F 43.4 °F 29.99 in South 1.0 mph 14.0 mph 62 % 0.00 in 650.00 W/m2
10:35 56.4 °F 43.6 °F 29.99 in South 12.0 mph 19.0 mph 62 % 0.00 in 557.00 W/m2
10:40 56.6 °F 43.8 °F 29.98 in South 9.0 mph 13.0 mph 62 % 0.00 in 383.00 W/m2
10:45 56.7 °F 43.8 °F 29.99 in South 7.0 mph 9.0 mph 62 % 0.00 in 392.00 W/m2
10:50 56.9 °F 44.0 °F 29.99 in SSW 8.0 mph 13.0 mph 62 % 0.00 in 315.00 W/m2
10:55 57.0 °F 45.4 °F 29.99 in Calm   10.0 mph 65 % 0.00 in 313.00 W/m2
11:01 57.0 °F 45.0 °F 29.99 in SSW 6.0 mph 12.0 mph 64 % 0.00 in 304.00 W/m2
11:06 57.0 °F 44.5 °F 29.99 in Calm   12.0 mph 63 % 0.00 in 257.00 W/m2
11:11 56.9 °F 44.5 °F 29.99 in Calm   1.0 mph 63 % 0.00 in 183.00 W/m2
11:16 56.8 °F 45.6 °F 29.99 in Calm   8.0 mph 66 % 0.00 in 209.00 W/m2
11:21 56.7 °F 45.9 °F 29.99 in Calm   1.0 mph 67 % 0.00 in 243.00 W/m2
11:26 56.6 °F 46.2 °F 29.99 in SSW 2.0 mph 11.0 mph 68 % 0.00 in 229.00 W/m2
11:31 56.5 °F 45.3 °F 29.99 in SSW 2.0 mph 9.0 mph 66 % 0.00 in 197.00 W/m2
11:36 56.4 °F 45.2 °F 29.99 in SSW 5.0 mph 8.0 mph 66 % 0.00 in 227.00 W/m2
11:41 56.3 °F 45.5 °F 29.99 in Calm   10.0 mph 67 % 0.00 in 197.00 W/m2
11:46 56.2 °F 45.8 °F 29.99 in Calm   8.0 mph 68 % 0.00 in 207.00 W/m2
11:51 56.1 °F 45.3 °F 30.00 in Calm   12.0 mph 67 % 0.00 in 179.00 W/m2
11:56 55.9 °F 45.5 °F 29.99 in Calm   13.0 mph 68 % 0.00 in 162.00 W/m2
12:01 55.8 °F 45.8 °F 29.98 in SSE 9.0 mph 11.0 mph 69 % 0.00 in 153.00 W/m2
12:06 55.6 °F 45.6 °F 29.99 in South 9.0 mph 12.0 mph 69 % 0.00 in 167.00 W/m2
12:11 55.5 °F 45.5 °F 29.98 in Calm   9.0 mph 69 % 0.00 in 169.00 W/m2
12:16 55.4 °F 45.8 °F 29.98 in SSW 5.0 mph 10.0 mph 70 % 0.00 in 211.00 W/m2
12:21 55.3 °F 45.3 °F 29.99 in Calm   7.0 mph 69 % 0.00 in 169.00 W/m2
12:23 55.3 °F 45.7 °F 29.99 in South 8.0 mph 9.0 mph 70 % 0.00 in 144.00 W/m2
12:28 55.2 °F 45.6 °F 29.99 in Calm   9.0 mph 70 % 0.00 in 172.00 W/m2
12:33 55.2 °F 46.0 °F 30.00 in Calm   7.0 mph 71 % 0.00 in 179.00 W/m2
12:38 55.1 °F 45.5 °F 29.98 in Calm   8.0 mph 70 % 0.00 in 181.00 W/m2
12:43 55.1 °F 45.9 °F 29.98 in Calm   9.0 mph 71 % 0.00 in 156.00 W/m2
12:48 55.0 °F 46.9 °F 29.98 in South 1.0 mph 1.0 mph 74 % 0.00 in 206.00 W/m2
12:53 55.0 °F 46.2 °F 29.97 in Calm   3.0 mph 72 % 0.00 in 218.00 W/m2
12:58 54.9 °F 46.4 °F 29.97 in SE 7.0 mph 10.0 mph 73 % 0.00 in 204.00 W/m2
13:03 54.9 °F 46.4 °F 29.95 in Calm   8.0 mph 73 % 0.00 in 281.00 W/m2
13:09 54.9 °F 46.4 °F 29.95 in SSE 8.0 mph 10.0 mph 73 % 0.00 in 294.00 W/m2
13:14 54.9 °F 46.4 °F 29.96 in South 6.0 mph 11.0 mph 73 % 0.00 in 299.00 W/m2
13:19 55.0 °F 46.5 °F 29.96 in SSE 6.0 mph 11.0 mph 73 % 0.00 in 260.00 W/m2
13:24 55.2 °F 46.7 °F 29.95 in ESE 14.0 mph 15.0 mph 73 % 0.00 in 244.00 W/m2
13:29 55.3 °F 46.4 °F 29.95 in SSE 9.0 mph 13.0 mph 72 % 0.00 in 216.00 W/m2
13:34 55.4 °F 46.9 °F 29.95 in SSE 5.0 mph 13.0 mph 73 % 0.00 in 209.00 W/m2
13:39 55.5 °F 46.6 °F 29.95 in Calm   13.0 mph 72 % 0.00 in 202.00 W/m2
13:44 55.6 °F 46.7 °F 29.95 in Calm   7.0 mph 72 % 0.00 in 188.00 W/m2
13:49 55.7 °F 46.8 °F 29.95 in Calm   17.0 mph 72 % 0.00 in 209.00 W/m2
13:54 55.8 °F 45.8 °F 29.94 in Calm   20.0 mph 69 % 0.00 in 155.00 W/m2
13:59 55.9 °F 46.3 °F 29.94 in SSE 1.0 mph 13.0 mph 70 % 0.00 in 146.00 W/m2
14:04 55.9 °F 45.5 °F 29.95 in SSE 1.0 mph 16.0 mph 68 % 0.00 in 163.00 W/m2
14:09 56.0 °F 46.0 °F 29.96 in SSW 8.0 mph 11.0 mph 69 % 0.00 in 134.00 W/m2
14:14 56.0 °F 47.5 °F 29.98 in SW 3.0 mph 11.0 mph 73 % 0.00 in 141.00 W/m2
14:19 55.9 °F 47.4 °F 29.99 in WSW 10.0 mph 20.0 mph 73 % 0.00 in 149.00 W/m2
14:24 55.5 °F 48.1 °F 29.99 in Calm   17.0 mph 76 % 0.00 in 107.00 W/m2
14:29 54.8 °F 48.1 °F 29.99 in WSW 7.0 mph 14.0 mph 78 % 0.00 in 74.00 W/m2
14:34 54.2 °F 48.2 °F 30.01 in SSW 4.0 mph 12.0 mph 80 % 0.00 in 86.00 W/m2
14:39 53.8 °F 48.1 °F 30.01 in WSW 2.0 mph 12.0 mph 81 % 0.00 in 42.00 W/m2
14:44 53.3 °F 48.0 °F 30.01 in WSW 3.0 mph 9.0 mph 82 % 0.00 in 21.00 W/m2
14:49 52.8 °F 47.8 °F 30.01 in South 2.0 mph 12.0 mph 83 % 0.00 in 19.00 W/m2
14:54 52.4 °F 47.7 °F 30.01 in South 7.0 mph 9.0 mph 84 % 0.22 in 46.00 W/m2
14:59 52.0 °F 47.6 °F 30.02 in South 4.0 mph 13.0 mph 85 % 0.18 in 44.00 W/m2
15:04 51.7 °F 47.7 °F 30.02 in South 8.0 mph 14.0 mph 86 % 0.22 in 44.00 W/m2
15:09 51.3 °F 47.6 °F 30.02 in WSW 11.0 mph 14.0 mph 87 % 0.20 in 42.00 W/m2
15:14 50.8 °F 47.1 °F 30.02 in Calm   11.0 mph 87 % 0.27 in 42.00 W/m2
15:19 50.4 °F 46.7 °F 30.00 in SSE 7.0 mph 11.0 mph 87 % 0.20 in 39.00 W/m2
15:24 50.0 °F 46.6 °F 30.00 in SE 6.0 mph 15.0 mph 88 % 0.14 in 40.00 W/m2
15:29 49.7 °F 46.3 °F 29.99 in SSE 13.0 mph 21.0 mph 88 % 0.19 in 35.00 W/m2
15:34 49.4 °F 46.0 °F 29.99 in ESE 2.0 mph 21.0 mph 88 % 0.14 in 42.00 W/m2
15:39 49.2 °F 45.8 °F 29.99 in SE 8.0 mph 20.0 mph 88 % 0.12 in 30.00 W/m2
15:40 49.2 °F 45.8 °F 29.99 in SE 5.0 mph 20.0 mph 88 % 0.12 in 33.00 W/m2
15:45 49.0 °F 45.9 °F 29.97 in ESE 25.0 mph 25.0 mph 89 % 0.17 in 42.00 W/m2
15:50 48.7 °F 45.6 °F 29.96 in SSE 23.0 mph 30.0 mph 89 % 0.20 in 51.00 W/m2
15:55 48.5 °F 45.4 °F 29.95 in ESE 9.0 mph 32.0 mph 89 % 0.10 in 44.00 W/m2
16:00 48.2 °F 45.1 °F 29.95 in SSE 17.0 mph 35.0 mph 89 % 0.09 in 42.00 W/m2
16:05 48.1 °F 45.0 °F 29.96 in South 8.0 mph 29.0 mph 89 % 0.07 in 130.00 W/m2
16:10 48.1 °F 45.0 °F 29.95 in SE 20.0 mph 22.0 mph 89 % 0.14 in 132.00 W/m2
16:15 48.1 °F 45.0 °F 29.95 in SSE 10.0 mph 19.0 mph 89 % 0.06 in 77.00 W/m2
16:20 48.1 °F 45.0 °F 29.96 in SE 4.0 mph 18.0 mph 89 % 0.04 in 63.00 W/m2
16:25 48.0 °F 44.9 °F 29.97 in SSE 4.0 mph 16.0 mph 89 % 0.04 in 33.00 W/m2
16:30 48.0 °F 44.9 °F 29.99 in South 7.0 mph 9.0 mph 89 % 0.04 in 51.00 W/m2
16:35 48.0 °F 44.9 °F 29.98 in SSE 6.0 mph 12.0 mph 89 % 0.34 in 91.00 W/m2
16:40 48.0 °F 44.9 °F 29.98 in SE 5.0 mph 9.0 mph 89 % 0.16 in 54.00 W/m2
16:45 48.0 °F 44.9 °F 29.99 in SSE 2.0 mph 10.0 mph 89 % 0.13 in 28.00 W/m2
16:50 48.0 °F 44.9 °F 29.99 in Calm     89 % 0.08 in 26.00 W/m2
16:55 47.9 °F 44.8 °F 29.99 in Calm     89 % 0.12 in 47.00 W/m2
17:00 47.9 °F 44.8 °F 29.98 in Calm     89 % 0.16 in 62.00 W/m2
17:05 47.8 °F 44.7 °F 29.98 in Calm     89 % 0.12 in 65.00 W/m2
17:10 47.8 °F 44.7 °F 29.98 in Calm     89 % 0.09 in 51.00 W/m2
17:15 47.8 °F 44.7 °F 29.98 in Calm     89 % 0.09 in 53.00 W/m2
17:20 47.8 °F 44.7 °F 29.99 in Calm     89 % 0.06 in 33.00 W/m2
17:25 47.8 °F 44.7 °F 30.00 in Calm     89 % 0.04 in 19.00 W/m2
17:30 47.8 °F 44.7 °F 30.00 in Calm     89 % 0.00 in 32.00 W/m2
17:35 47.7 °F 44.6 °F 30.00 in Calm     89 % 0.19 in 33.00 W/m2
17:40 47.7 °F 44.6 °F 30.00 in SSE 9.0 mph 12.0 mph 89 % 0.12 in 37.00 W/m2
17:45 47.7 °F 44.6 °F 30.00 in South 4.0 mph 10.0 mph 89 % 0.06 in 23.00 W/m2
17:50 47.7 °F 44.6 °F 30.00 in SSE 6.0 mph 11.0 mph 89 % 0.06 in 26.00 W/m2
17:55 47.7 °F 44.6 °F 30.00 in Calm   4.0 mph 89 % 0.05 in 16.00 W/m2
18:00 47.7 °F 44.6 °F 30.01 in South 5.0 mph 13.0 mph 89 % 0.05 in 12.00 W/m2
18:05 47.6 °F 44.5 °F 30.01 in SSW 10.0 mph 13.0 mph 89 % 0.05 in 21.00 W/m2
18:10 47.6 °F 44.5 °F 30.00 in SSE 10.0 mph 17.0 mph 89 % 0.06 in 14.00 W/m2
18:15 47.5 °F 44.4 °F 30.00 in SSE 10.0 mph 18.0 mph 89 % 0.06 in 12.00 W/m2
18:20 47.5 °F 44.4 °F 30.01 in South 7.0 mph 14.0 mph 89 % 0.06 in 9.00 W/m2
18:25 47.4 °F 44.3 °F 30.00 in South 9.0 mph 17.0 mph 89 % 0.08 in 18.00 W/m2
18:30 47.5 °F 44.4 °F 30.01 in SSW 10.0 mph 24.0 mph 89 % 0.08 in 7.00 W/m2
18:35 47.4 °F 44.3 °F 30.00 in SE 7.0 mph 16.0 mph 89 % 0.05 in 7.00 W/m2
18:40 47.4 °F 44.3 °F 30.00 in SSE 8.0 mph 13.0 mph 89 % 0.05 in 9.00 W/m2
18:45 47.4 °F 44.3 °F 30.00 in SE 11.0 mph 13.0 mph 89 % 0.06 in 7.00 W/m2
18:50 47.4 °F 44.3 °F 30.00 in SE 7.0 mph 14.0 mph 89 % 0.06 in 0.00 W/m2
18:55 47.4 °F 44.3 °F 30.01 in South 14.0 mph 17.0 mph 89 % 0.06 in 5.00 W/m2
18:56 47.4 °F 44.3 °F 30.01 in South 12.0 mph 12.0 mph 89 % 0.05 in 5.00 W/m2
19:01 47.4 °F 44.3 °F 30.00 in Calm   2.0 mph 89 % 0.19 in 9.00 W/m2
19:06 47.4 °F 44.3 °F 30.00 in SSE 9.0 mph 11.0 mph 89 % 0.10 in 7.00 W/m2
19:11 47.4 °F 44.3 °F 30.00 in South 6.0 mph 9.0 mph 89 % 0.05 in 5.00 W/m2
19:16 47.4 °F 44.3 °F 30.00 in SSE 4.0 mph 10.0 mph 89 % 0.04 in 7.00 W/m2
19:21 47.4 °F 44.3 °F 30.00 in South 10.0 mph 11.0 mph 89 % 0.04 in 0.00 W/m2
19:26 47.5 °F 44.4 °F 30.01 in South 9.0 mph 12.0 mph 89 % 0.04 in 0.00 W/m2
19:31 47.5 °F 44.4 °F 30.01 in South 5.0 mph 9.0 mph 89 % 0.05 in 0.00 W/m2
19:36 47.5 °F 44.4 °F 30.01 in Calm     89 % 0.05 in 0.00 W/m2
19:41 47.5 °F 44.4 °F 30.01 in Calm   5.0 mph 89 % 0.05 in 0.00 W/m2
19:46 47.5 °F 44.4 °F 30.00 in South 9.0 mph 11.0 mph 89 % 0.04 in 0.00 W/m2
19:51 47.5 °F 44.4 °F 30.01 in South 7.0 mph 16.0 mph 89 % 0.00 in 0.00 W/m2
19:56 47.5 °F 44.4 °F 30.01 in South 7.0 mph 10.0 mph 89 % 0.00 in 0.00 W/m2
20:01 47.5 °F 44.7 °F 30.01 in SSE 10.0 mph 12.0 mph 90 % 0.00 in 0.00 W/m2
20:06 47.6 °F 44.8 °F 30.01 in South 10.0 mph 14.0 mph 90 % 0.00 in 0.00 W/m2
20:11 47.6 °F 44.8 °F 30.01 in SSE 13.0 mph 14.0 mph 90 % 0.00 in 0.00 W/m2
20:16 47.6 °F 44.8 °F 30.00 in SSE 7.0 mph 15.0 mph 90 % 0.00 in 0.00 W/m2
20:21 47.6 °F 44.8 °F 30.01 in South 4.0 mph 9.0 mph 90 % 0.00 in 0.00 W/m2
20:27 47.6 °F 44.8 °F 30.02 in SSE 6.0 mph 11.0 mph 90 % 0.00 in 0.00 W/m2
20:31 47.6 °F 44.8 °F 30.02 in SSE 15.0 mph 15.0 mph 90 % 0.00 in 0.00 W/m2
20:37 47.6 °F 44.8 °F 30.02 in SSE 4.0 mph 17.0 mph 90 % 0.00 in 0.00 W/m2
20:42 47.7 °F 44.9 °F 30.02 in SSE 5.0 mph 12.0 mph 90 % 0.00 in 0.00 W/m2
20:47 47.7 °F 44.9 °F 30.03 in South 15.0 mph 15.0 mph 90 % 0.00 in 0.00 W/m2
20:52 47.7 °F 44.9 °F 30.03 in SSE 12.0 mph 17.0 mph 90 % 0.00 in 0.00 W/m2
20:57 47.7 °F 44.9 °F 30.03 in South 10.0 mph 12.0 mph 90 % 0.00 in 0.00 W/m2
21:02 47.7 °F 44.9 °F 30.03 in Calm   11.0 mph 90 % 0.07 in 0.00 W/m2
21:07 47.8 °F 45.0 °F 30.04 in South 5.0 mph 10.0 mph 90 % 0.07 in 0.00 W/m2
21:12 47.8 °F 45.0 °F 30.04 in Calm   11.0 mph 90 % 0.05 in 0.00 W/m2
21:17 47.8 °F 45.0 °F 30.04 in SSW 8.0 mph 13.0 mph 90 % 0.04 in 0.00 W/m2
21:22 47.8 °F 45.0 °F 30.04 in South 5.0 mph 10.0 mph 90 % 0.04 in 0.00 W/m2
21:27 47.8 °F 45.0 °F 30.05 in SSW 5.0 mph 11.0 mph 90 % 0.04 in 0.00 W/m2
21:32 47.8 °F 45.0 °F 30.05 in SSE 7.0 mph 12.0 mph 90 % 0.68 in 0.00 W/m2
21:37 47.8 °F 45.0 °F 30.05 in SSE 7.0 mph 7.0 mph 90 % 0.22 in 0.00 W/m2
21:42 47.9 °F 45.1 °F 30.05 in SSE 8.0 mph 11.0 mph 90 % 0.08 in 0.00 W/m2
21:47 47.9 °F 45.1 °F 30.04 in SSE 8.0 mph 17.0 mph 90 % 0.05 in 0.00 W/m2
21:52 47.9 °F 45.1 °F 30.04 in SSE 14.0 mph 18.0 mph 90 % 0.00 in 0.00 W/m2
21:57 47.9 °F 45.1 °F 30.05 in SSW 8.0 mph 13.0 mph 90 % 0.00 in 0.00 W/m2
22:02 48.0 °F 45.2 °F 30.05 in SSE 9.0 mph 11.0 mph 90 % 0.45 in 0.00 W/m2
22:07 48.0 °F 45.2 °F 30.05 in South 6.0 mph 11.0 mph 90 % 0.09 in 0.00 W/m2
22:12 47.9 °F 45.1 °F 30.06 in SSW 9.0 mph 9.0 mph 90 % 0.05 in 0.00 W/m2
22:17 48.0 °F 45.2 °F 30.06 in SSE 6.0 mph 13.0 mph 90 % 0.39 in 0.00 W/m2
22:22 48.0 °F 45.2 °F 30.06 in SW 16.0 mph 19.0 mph 90 % 0.20 in 0.00 W/m2
22:27 48.0 °F 45.2 °F 30.06 in SSE 7.0 mph 17.0 mph 90 % 0.12 in 0.00 W/m2
22:32 48.0 °F 45.2 °F 30.06 in South 13.0 mph 18.0 mph 90 % 0.06 in 0.00 W/m2
22:37 48.0 °F 45.2 °F 30.06 in SE 17.0 mph 17.0 mph 90 % 0.04 in 0.00 W/m2
22:42 47.9 °F 45.1 °F 30.06 in SSE 12.0 mph 18.0 mph 90 % 0.00 in 0.00 W/m2
22:47 47.9 °F 45.1 °F 30.06 in SSE 15.0 mph 19.0 mph 90 % 0.00 in 0.00 W/m2
22:52 47.9 °F 45.1 °F 30.06 in South 5.0 mph 16.0 mph 90 % 0.00 in 0.00 W/m2
22:57 47.8 °F 45.0 °F 30.06 in SSW 12.0 mph 17.0 mph 90 % 0.00 in 0.00 W/m2
23:03 47.8 °F 45.0 °F 30.06 in SSE 14.0 mph 17.0 mph 90 % 0.00 in 0.00 W/m2
23:08 47.8 °F 45.0 °F 30.06 in South 9.0 mph 12.0 mph 90 % 0.00 in 0.00 W/m2
23:13 47.8 °F 45.0 °F 30.06 in SSE 6.0 mph 12.0 mph 90 % 0.00 in 0.00 W/m2
23:18 47.8 °F 45.0 °F 30.06 in SSE 11.0 mph 16.0 mph 90 % 0.00 in 0.00 W/m2
23:23 47.8 °F 45.0 °F 30.06 in South 14.0 mph 14.0 mph 90 % 0.00 in 0.00 W/m2
23:28 47.8 °F 45.0 °F 30.06 in South 5.0 mph 10.0 mph 90 % 0.00 in 0.00 W/m2
23:33 47.8 °F 45.0 °F 30.06 in South 3.0 mph 14.0 mph 90 % 0.00 in 0.00 W/m2
23:38 47.8 °F 45.0 °F 30.06 in Calm   15.0 mph 90 % 0.00 in 0.00 W/m2
23:43 47.8 °F 45.0 °F 30.03 in SE 23.0 mph 23.0 mph 90 % 0.00 in 0.00 W/m2
23:48 47.8 °F 45.0 °F 30.02 in SE 9.0 mph 26.0 mph 90 % 0.00 in 0.00 W/m2
23:53 47.8 °F 45.0 °F 30.03 in SE 16.0 mph 20.0 mph 90 % 0.00 in 0.00 W/m2
23:58 47.8 °F 45.0 °F 30.03 in SSE 12.0 mph 22.0 mph 90 % 0.00 in 0.00 W/m2
Juneau County Weather
Compliments of Weather Underground - 4.5 mb
 WU-history PHP script courtesy of   Juneau County Weather.
powered by Cumulus v1.9.3 (1059)
Ambient Weather VWS v14.00
Top Contact Website Map Copyright © 2007 - 2018 Foresthillweather.com Never base important decisions on this or any weather information obtained from the Internet